Time;durP1;ratioP1;P1;durP2;ratioP2;P2;SDS_P1;SDS_P2;PMS_P1;PMS_P2;Temp;Humidity;BMP_temperature;BMP_pressure;BME280_temperature;BME280_humidity;BME280_pressure;Samples;Min_cycle;Max_cycle;Signal;HPM_P1;HPM_P2
2023/06/01 00:00:06;;;;;;;7.10;2.60;;;18.50;1.00;;;;;;5094171;28;20833;-67
2023/06/01 00:02:33;;;;;;;3.60;2.43;;;18.40;1.00;;;;;;5093913;28;20445;-67
2023/06/01 00:05:01;;;;;;;2.80;2.10;;;18.30;1.00;;;;;;5093580;28;20481;-67
2023/06/01 00:07:29;;;;;;;3.43;2.20;;;18.20;99.90;;;;;;5093626;28;20563;-67
2023/06/01 00:09:56;;;;;;;3.40;1.87;;;18.20;71.50;;;;;;5095828;28;20457;-67
2023/06/01 00:12:23;;;;;;;3.90;2.33;;;18.10;76.40;;;;;;5097137;28;20917;-67
2023/06/01 00:14:50;;;;;;;3.73;1.93;;;18.10;78.40;;;;;;5097051;28;20540;-67
2023/06/01 00:17:17;;;;;;;2.10;1.90;;;18.00;81.10;;;;;;5097384;28;20457;-67
2023/06/01 00:19:44;;;;;;;3.90;1.90;;;18.00;83.70;;;;;;5097272;28;20780;-67
2023/06/01 00:22:13;;;;;;;2.80;2.03;;;18.00;85.80;;;;;;5097009;28;20863;-67
2023/06/01 00:24:39;;;;;;;7.90;2.60;;;18.00;88.50;;;;;;5096893;28;20957;-67
2023/06/01 00:27:07;;;;;;;2.57;2.10;;;18.00;90.10;;;;;;5097128;28;20556;-67
2023/06/01 00:29:34;;;;;;;2.93;2.10;;;18.00;91.00;;;;;;5097108;28;20464;-67
2023/06/01 00:32:01;;;;;;;3.60;1.90;;;18.00;92.10;;;;;;5096966;28;20472;-67
2023/06/01 00:34:28;;;;;;;3.90;2.40;;;17.90;93.00;;;;;;5097044;28;20453;-67
2023/06/01 00:36:55;;;;;;;3.93;2.17;;;17.90;94.30;;;;;;5096629;28;20486;-67
2023/06/01 00:39:23;;;;;;;5.23;2.10;;;17.80;95.60;;;;;;5096639;28;20547;-67
2023/06/01 00:41:50;;;;;;;2.90;1.93;;;17.70;97.30;;;;;;5097081;28;20454;-67
2023/06/01 00:44:17;;;;;;;6.00;2.27;;;17.70;98.90;;;;;;5097284;28;20626;-67
2023/06/01 00:46:44;;;;;;;3.17;1.93;;;17.60;99.90;;;;;;5096459;28;21009;-67
2023/06/01 00:49:11;;;;;;;4.03;2.20;;;17.60;99.90;;;;;;5096420;28;20459;-67
2023/06/01 00:51:38;;;;;;;2.80;1.83;;;17.50;99.90;;;;;;5096937;28;20457;-67
2023/06/01 00:54:05;;;;;;;3.53;2.00;;;17.50;99.90;;;;;;5096886;28;20453;-67
2023/06/01 00:56:35;;;;;;;2.63;2.13;;;17.50;99.90;;;;;;5096729;28;20449;-67
2023/06/01 00:59:02;;;;;;;4.47;2.13;;;17.40;99.90;;;;;;5096589;28;20511;-67
2023/06/01 01:01:29;;;;;;;2.57;1.90;;;17.40;99.90;;;;;;5096318;28;20458;-67
2023/06/01 01:03:59;;;;;;;2.50;2.30;;;17.40;99.90;;;;;;5096245;28;20463;-67
2023/06/01 01:06:36;;;;;;;2.70;2.27;;;17.30;99.90;;;;;;5095840;28;20476;-67
2023/06/01 01:09:18;;;;;;;3.70;2.37;;;17.30;99.90;;;;;;5096144;28;20441;-67
2023/06/01 01:11:53;;;;;;;3.13;2.03;;;17.30;99.90;;;;;;5095838;28;20528;-67
2023/06/01 01:14:24;;;;;;;3.90;2.30;;;17.20;99.90;;;;;;5095905;28;20452;-67
2023/06/01 01:17:02;;;;;;;2.47;2.23;;;17.20;99.90;;;;;;5096022;28;20521;-67
2023/06/01 01:19:53;;;;;;;5.83;2.23;;;17.10;99.90;;;;;;5096223;28;20446;-67
2023/06/01 01:22:31;;;;;;;4.63;2.40;;;17.10;99.90;;;;;;5096006;28;20469;-67
2023/06/01 01:25:19;;;;;;;4.27;2.10;;;17.00;99.90;;;;;;5095588;28;20945;-67
2023/06/01 01:28:01;;;;;;;2.93;2.47;;;17.00;99.90;;;;;;5096002;28;20506;-67
2023/06/01 01:30:31;;;;;;;2.93;2.23;;;16.90;99.90;;;;;;5095959;28;20446;-67
2023/06/01 01:32:59;;;;;;;5.93;2.90;;;16.90;99.90;;;;;;5096257;28;20458;-67
2023/06/01 01:35:27;;;;;;;3.80;2.70;;;16.80;99.90;;;;;;5095906;28;20831;-67
2023/06/01 01:37:55;;;;;;;5.40;2.40;;;16.80;99.90;;;;;;5095317;28;20508;-67
2023/06/01 01:40:22;;;;;;;3.03;2.23;;;16.70;99.90;;;;;;5095603;28;20449;-67
2023/06/01 01:42:51;;;;;;;5.40;2.90;;;16.70;99.90;;;;;;5095647;28;20549;-67
2023/06/01 01:45:18;;;;;;;3.80;2.47;;;16.70;99.90;;;;;;5095477;28;20485;-67
2023/06/01 01:47:54;;;;;;;3.07;2.33;;;16.70;99.90;;;;;;5095128;28;20453;-67
2023/06/01 01:50:24;;;;;;;5.57;2.40;;;16.50;99.90;;;;;;5095547;28;20721;-67
2023/06/01 01:52:54;;;;;;;4.27;2.90;;;16.50;99.90;;;;;;5095331;28;20841;-67
2023/06/01 01:55:23;;;;;;;6.70;2.90;;;16.30;99.90;;;;;;5095267;28;20449;-67
2023/06/01 01:57:51;;;;;;;3.37;2.17;;;16.30;99.90;;;;;;5095200;28;20571;-67
2023/06/01 02:00:20;;;;;;;4.73;2.73;;;16.20;99.90;;;;;;5095318;28;20458;-67
2023/06/01 02:02:48;;;;;;;3.90;2.73;;;16.10;99.90;;;;;;5095517;28;20457;-68
2023/06/01 02:05:15;;;;;;;7.63;2.63;;;16.10;99.90;;;;;;5095072;28;20481;-68
2023/06/01 02:07:41;;;;;;;6.43;3.20;;;16.00;99.90;;;;;;5095134;28;20453;-68
2023/06/01 02:10:09;;;;;;;2.93;2.73;;;15.90;99.90;;;;;;5095309;28;20934;-68
2023/06/01 02:12:36;;;;;;;4.40;2.87;;;15.80;99.90;;;;;;5094977;28;21016;-68
2023/06/01 02:15:03;;;;;;;5.47;2.70;;;15.70;99.90;;;;;;5094805;28;20552;-68
2023/06/01 02:17:30;;;;;;;7.77;2.80;;;15.70;99.90;;;;;;5095097;28;20454;-68
2023/06/01 02:19:58;;;;;;;5.17;2.80;;;15.60;99.90;;;;;;5094824;28;20793;-68
2023/06/01 02:22:25;;;;;;;5.33;2.67;;;15.60;99.90;;;;;;5095086;28;20711;-68
2023/06/01 02:24:52;;;;;;;5.07;3.00;;;15.60;99.90;;;;;;5094650;28;21001;-68
2023/06/01 02:27:18;;;;;;;6.83;3.23;;;15.60;99.90;;;;;;5094686;28;20557;-68
2023/06/01 02:29:45;;;;;;;4.03;2.43;;;15.50;99.90;;;;;;5094579;28;20453;-68
2023/06/01 02:32:12;;;;;;;3.70;2.47;;;15.40;99.90;;;;;;5094206;28;20449;-68
2023/06/01 02:34:39;;;;;;;4.83;2.53;;;15.30;99.90;;;;;;5094554;28;20463;-68
2023/06/01 02:37:08;;;;;;;5.70;2.60;;;15.30;99.90;;;;;;5094445;28;20545;-68
2023/06/01 02:39:34;;;;;;;5.60;3.00;;;15.20;99.90;;;;;;5094623;28;20453;-68
2023/06/01 02:42:01;;;;;;;6.30;2.93;;;15.20;99.90;;;;;;5094591;28;20458;-68
2023/06/01 02:44:28;;;;;;;4.23;2.87;;;15.10;99.90;;;;;;5094524;28;20508;-68
2023/06/01 02:46:55;;;;;;;4.60;3.17;;;15.10;99.90;;;;;;5094441;28;20556;-67
2023/06/01 02:49:22;;;;;;;6.67;4.13;;;15.10;99.90;;;;;;5094317;28;20468;-67
2023/06/01 02:51:48;;;;;;;5.97;4.00;;;15.00;99.90;;;;;;5094489;28;20549;-68
2023/06/01 02:54:17;;;;;;;5.03;3.60;;;15.00;99.90;;;;;;5094262;28;20871;-68
2023/06/01 02:56:43;;;;;;;5.50;3.43;;;14.90;99.90;;;;;;5094538;28;20785;-68
2023/06/01 02:59:10;;;;;;;6.07;3.50;;;14.80;99.90;;;;;;5094587;28;20453;-68
2023/06/01 03:01:38;;;;;;;5.20;3.60;;;14.70;99.90;;;;;;5094143;28;20493;-68
2023/06/01 03:04:05;;;;;;;7.23;3.67;;;14.60;99.90;;;;;;5094092;28;20464;-68
2023/06/01 03:06:33;;;;;;;4.60;3.30;;;14.50;99.90;;;;;;5094140;28;20478;-68
2023/06/01 03:09:00;;;;;;;7.60;4.00;;;14.50;99.90;;;;;;5094159;28;20461;-68
2023/06/01 03:11:28;;;;;;;6.63;3.83;;;14.40;99.90;;;;;;5094388;28;20485;-66
2023/06/01 03:13:56;;;;;;;8.73;4.43;;;14.30;99.90;;;;;;5094131;28;20453;-68
2023/06/01 03:16:23;;;;;;;6.50;4.20;;;14.20;99.90;;;;;;5094608;28;20785;-68
2023/06/01 03:18:50;;;;;;;6.20;3.53;;;14.10;99.90;;;;;;5094442;28;20454;-68
2023/06/01 03:21:17;;;;;;;5.30;3.73;;;14.20;99.90;;;;;;5093949;28;20460;-68
2023/06/01 03:23:44;;;;;;;14.03;4.10;;;14.10;99.90;;;;;;5094387;28;20457;-68
2023/06/01 03:26:12;;;;;;;7.73;4.63;;;14.10;99.90;;;;;;5094235;28;20568;-68
2023/06/01 03:28:40;;;;;;;7.70;4.30;;;14.00;99.90;;;;;;5094453;28;20589;-67
2023/06/01 03:31:11;;;;;;;8.30;4.63;;;14.00;99.90;;;;;;5094305;28;20555;-68
2023/06/01 03:33:37;;;;;;;9.10;5.07;;;13.90;99.90;;;;;;5094279;28;20446;-68
2023/06/01 03:36:07;;;;;;;5.87;4.10;;;13.90;99.90;;;;;;5093777;28;20541;-68
2023/06/01 03:38:34;;;;;;;7.40;4.70;;;14.00;99.90;;;;;;5093891;28;20693;-68
2023/06/01 03:41:01;;;;;;;10.43;5.00;;;13.80;99.90;;;;;;5093951;28;20560;-67
2023/06/01 03:43:28;;;;;;;11.20;4.93;;;13.70;99.90;;;;;;5095520;28;20471;-68
2023/06/01 03:45:57;;;;;;;10.73;4.97;;;13.60;99.90;;;;;;5097655;28;20483;-68
2023/06/01 03:48:24;;;;;;;11.83;5.10;;;13.50;99.90;;;;;;5098101;28;20471;-68
2023/06/01 03:50:51;;;;;;;10.67;5.13;;;13.50;99.90;;;;;;5097757;28;20457;-68
2023/06/01 03:53:18;;;;;;;9.73;4.93;;;13.40;99.90;;;;;;5097870;28;20806;-68
2023/06/01 03:55:44;;;;;;;9.07;5.10;;;13.40;99.90;;;;;;5097520;28;20464;-69
2023/06/01 03:58:11;;;;;;;7.30;5.37;;;13.50;99.90;;;;;;5097792;28;20467;-68
2023/06/01 04:00:39;;;;;;;7.87;5.53;;;13.50;99.90;;;;;;5097421;28;20556;-68
2023/06/01 04:03:07;;;;;;;15.00;5.63;;;13.50;99.90;;;;;;5097749;28;20453;-68
2023/06/01 04:05:36;;;;;;;10.60;5.80;;;13.50;99.90;;;;;;5097352;28;20457;-68
2023/06/01 04:08:03;;;;;;;8.23;5.50;;;13.40;99.90;;;;;;5098032;28;20828;-68
2023/06/01 04:10:29;;;;;;;14.93;6.10;;;13.30;99.90;;;;;;5097543;28;20742;-68
2023/06/01 04:12:56;;;;;;;8.50;6.53;;;13.30;99.90;;;;;;5097297;28;20540;-68
2023/06/01 04:15:23;;;;;;;14.83;6.80;;;13.30;99.90;;;;;;5097545;28;20453;-68
2023/06/01 04:17:50;;;;;;;10.37;6.27;;;13.20;99.90;;;;;;5097561;28;20849;-68
2023/06/01 04:20:18;;;;;;;13.03;6.93;;;13.10;99.90;;;;;;5097384;28;20535;-68
2023/06/01 04:22:46;;;;;;;15.00;6.80;;;13.00;99.90;;;;;;5097514;28;20463;-68
2023/06/01 04:25:17;;;;;;;14.07;6.63;;;12.90;99.90;;;;;;5096844;28;20914;-68
2023/06/01 04:27:45;;;;;;;17.00;7.00;;;12.90;99.90;;;;;;5097302;28;20476;-68
2023/06/01 04:30:13;;;;;;;17.67;7.73;;;12.90;99.90;;;;;;5097417;28;20452;-68
2023/06/01 04:32:43;;;;;;;13.93;8.23;;;13.00;99.90;;;;;;5097178;28;20461;-68
2023/06/01 04:35:11;;;;;;;15.17;8.50;;;13.00;99.90;;;;;;5097347;28;20464;-68
2023/06/01 04:37:41;;;;;;;23.33;10.10;;;13.00;99.90;;;;;;5096891;28;20491;-68
2023/06/01 04:40:09;;;;;;;25.37;11.97;;;13.00;99.90;;;;;;5097386;28;20454;-68
2023/06/01 04:42:38;;;;;;;15.43;9.13;;;13.00;99.90;;;;;;5096997;28;20453;-68
2023/06/01 04:45:07;;;;;;;13.20;8.40;;;13.00;99.90;;;;;;5097172;28;20489;-69
2023/06/01 04:47:36;;;;;;;14.53;8.33;;;13.00;99.90;;;;;;5096777;28;20488;-67
2023/06/01 04:50:03;;;;;;;15.27;8.87;;;13.00;99.90;;;;;;5096950;28;20457;-67
2023/06/01 04:52:30;;;;;;;14.83;7.77;;;13.00;99.90;;;;;;5096637;28;20457;-68
2023/06/01 04:54:58;;;;;;;14.73;9.63;;;13.00;99.90;;;;;;5096116;28;20752;-67
2023/06/01 04:57:25;;;;;;;11.13;9.10;;;13.00;99.90;;;;;;5096428;28;20449;-67
2023/06/01 04:59:56;;;;;;;13.43;9.00;;;13.00;99.90;;;;;;5096836;28;20808;-68
2023/06/01 05:02:24;;;;;;;16.20;9.57;;;13.10;99.90;;;;;;5096148;28;20445;-68
2023/06/01 05:04:51;;;;;;;15.53;8.67;;;13.10;99.90;;;;;;5096620;28;20776;-68
2023/06/01 05:07:18;;;;;;;15.87;9.80;;;13.10;99.90;;;;;;5096512;28;20584;-68
2023/06/01 05:09:45;;;;;;;17.70;10.20;;;13.20;99.90;;;;;;5099376;28;20481;-67
2023/06/01 05:12:13;;;;;;;12.30;8.43;;;13.20;99.90;;;;;;5100403;28;20540;-68
2023/06/01 05:14:40;;;;;;;13.43;8.47;;;13.20;99.90;;;;;;5101423;28;20602;-67
2023/06/01 05:17:07;;;;;;;15.40;8.93;;;13.20;99.90;;;;;;5100584;28;20829;-68
2023/06/01 05:19:33;;;;;;;12.30;9.10;;;13.20;99.90;;;;;;5097226;28;20522;-68
2023/06/01 05:22:00;;;;;;;13.13;9.83;;;13.20;99.90;;;;;;5096316;28;20540;-68
2023/06/01 05:24:27;;;;;;;16.27;10.10;;;13.10;99.90;;;;;;5096518;28;20500;-68
2023/06/01 05:26:54;;;;;;;16.97;9.77;;;12.70;99.90;;;;;;5096293;28;20487;-67
2023/06/01 05:29:22;;;;;;;15.33;10.27;;;12.40;99.90;;;;;;5096863;28;20553;-67
2023/06/01 05:31:50;;;;;;;15.20;10.23;;;12.20;99.90;;;;;;5096902;28;20467;-68
2023/06/01 05:34:16;;;;;;;14.90;9.70;;;12.00;99.90;;;;;;5096385;28;20460;-68
2023/06/01 05:36:43;;;;;;;12.80;10.10;;;12.10;99.90;;;;;;5098911;28;20485;-68
2023/06/01 05:39:10;;;;;;;10.40;8.67;;;12.20;99.90;;;;;;5100213;28;20454;-68
2023/06/01 05:41:37;;;;;;;11.90;9.13;;;12.20;99.90;;;;;;5098676;28;20457;-68
2023/06/01 05:44:04;;;;;;;12.57;8.57;;;12.40;99.90;;;;;;5098220;28;20477;-68
2023/06/01 05:46:32;;;;;;;15.33;8.83;;;12.30;99.90;;;;;;5096596;28;20463;-68
2023/06/01 05:49:00;;;;;;;15.20;8.67;;;12.40;99.90;;;;;;5096370;28;20457;-68
2023/06/01 05:51:26;;;;;;;12.57;7.70;;;12.40;99.90;;;;;;5096942;28;20507;-67
2023/06/01 05:53:54;;;;;;;12.87;7.63;;;12.20;99.90;;;;;;5095937;28;20491;-67
2023/06/01 05:56:20;;;;;;;15.27;8.50;;;12.00;99.90;;;;;;5095304;28;20477;-68
2023/06/01 05:58:50;;;;;;;11.07;7.43;;;12.10;99.90;;;;;;5095595;28;20463;-68
2023/06/01 06:01:17;;;;;;;14.40;8.17;;;12.20;99.90;;;;;;5095429;28;20453;-68
2023/06/01 06:03:46;;;;;;;14.83;8.40;;;12.30;99.90;;;;;;5095229;28;20461;-68
2023/06/01 06:06:12;;;;;;;14.50;7.70;;;12.50;99.90;;;;;;5094951;28;20475;-68
2023/06/01 06:08:39;;;;;;;11.87;7.10;;;12.50;99.90;;;;;;5095047;28;20547;-68
2023/06/01 06:11:06;;;;;;;9.50;6.67;;;12.50;99.90;;;;;;5095137;28;21082;-68
2023/06/01 06:13:33;;;;;;;12.53;7.37;;;12.60;99.90;;;;;;5095388;28;20855;-68
2023/06/01 06:16:00;;;;;;;8.90;7.10;;;12.40;99.90;;;;;;5095298;28;20560;-68
2023/06/01 06:18:27;;;;;;;11.50;6.87;;;12.50;99.90;;;;;;5095228;28;20854;-67
2023/06/01 06:20:55;;;;;;;10.90;6.23;;;12.40;99.90;;;;;;5095206;28;20548;-67
2023/06/01 06:23:22;;;;;;;11.97;7.60;;;12.20;99.90;;;;;;5095014;28;20453;-67
2023/06/01 06:25:49;;;;;;;10.43;8.00;;;12.10;99.90;;;;;;5095313;28;20464;-67
2023/06/01 06:28:16;;;;;;;10.27;6.70;;;12.10;99.90;;;;;;5095142;28;20468;-67
2023/06/01 06:30:43;;;;;;;16.20;6.87;;;12.20;99.90;;;;;;5094916;28;20464;-67
2023/06/01 06:33:09;;;;;;;11.40;6.80;;;12.30;99.90;;;;;;5095177;28;20544;-67
2023/06/01 06:35:36;;;;;;;10.40;6.67;;;12.30;99.90;;;;;;5094836;28;20476;-66
2023/06/01 06:38:05;;;;;;;8.73;7.23;;;12.40;99.90;;;;;;5094324;28;20539;-66
2023/06/01 06:40:31;;;;;;;8.17;5.90;;;12.40;99.90;;;;;;5094561;28;20917;-67
2023/06/01 06:42:58;;;;;;;10.53;6.20;;;12.40;99.90;;;;;;5094665;28;20968;-68
2023/06/01 06:45:25;;;;;;;12.03;6.47;;;12.40;99.90;;;;;;5094725;28;20453;-68
2023/06/01 06:47:52;;;;;;;9.43;6.17;;;12.40;99.90;;;;;;5094424;28;20910;-68
2023/06/01 06:50:19;;;;;;;12.60;5.33;;;12.20;99.90;;;;;;5094438;28;20453;-68
2023/06/01 06:52:46;;;;;;;9.67;6.33;;;11.90;99.90;;;;;;5094261;28;21016;-68
2023/06/01 06:55:14;;;;;;;12.93;6.70;;;12.00;99.90;;;;;;5094267;28;20453;-68
2023/06/01 06:57:41;;;;;;;11.60;7.00;;;12.10;99.90;;;;;;5094590;28;20478;-68
2023/06/01 07:00:13;;;;;;;12.93;7.70;;;12.30;99.90;;;;;;5094554;28;20457;-68
2023/06/01 07:02:41;;;;;;;10.93;6.57;;;12.50;99.90;;;;;;5094826;28;20448;-67
2023/06/01 07:05:10;;;;;;;10.20;5.80;;;12.60;99.90;;;;;;5094255;28;20463;-68
2023/06/01 07:07:37;;;;;;;10.90;6.10;;;12.80;99.90;;;;;;5094612;28;20484;-68
2023/06/01 07:10:05;;;;;;;11.03;6.07;;;12.90;99.90;;;;;;5095002;28;20453;-68
2023/06/01 07:12:34;;;;;;;12.57;6.67;;;13.00;99.90;;;;;;5094689;28;20453;-68
2023/06/01 07:15:02;;;;;;;14.60;6.03;;;13.20;99.90;;;;;;5094205;28;20457;-68
2023/06/01 07:17:29;;;;;;;12.03;6.40;;;13.40;99.90;;;;;;5093970;28;20513;-68
2023/06/01 07:19:56;;;;;;;9.80;6.30;;;13.50;99.90;;;;;;5098248;28;20793;-68
2023/06/01 07:22:22;;;;;;;11.93;5.57;;;13.70;99.90;;;;;;5098381;28;20457;-68
2023/06/01 07:24:49;;;;;;;7.80;5.30;;;13.90;99.90;;;;;;5098516;28;20794;-67
2023/06/01 07:27:20;;;;;;;12.27;6.63;;;13.60;99.90;;;;;;5098326;28;20936;-68
2023/06/01 07:29:49;;;;;;;13.33;5.90;;;13.10;99.90;;;;;;5098193;28;20541;-66
2023/06/01 07:32:16;;;;;;;12.67;6.23;;;12.80;99.90;;;;;;5098519;28;20556;-69
2023/06/01 07:34:42;;;;;;;11.43;5.70;;;12.70;99.90;;;;;;5098342;28;20467;-69
2023/06/01 07:37:09;;;;;;;9.73;6.20;;;12.70;99.90;;;;;;5097836;28;20584;-68
2023/06/01 07:39:36;;;;;;;13.33;6.40;;;12.80;99.90;;;;;;5098326;28;20467;-66
2023/06/01 07:42:03;;;;;;;11.30;6.57;;;12.80;99.90;;;;;;5098108;28;20457;-68
2023/06/01 07:44:30;;;;;;;8.70;6.93;;;12.80;99.90;;;;;;5098238;28;20467;-69
2023/06/01 07:46:58;;;;;;;10.97;6.27;;;12.90;99.90;;;;;;5098248;28;20540;-69
2023/06/01 07:49:25;;;;;;;12.23;5.80;;;12.90;99.90;;;;;;5098038;28;20515;-68
2023/06/01 07:51:52;;;;;;;11.87;6.67;;;12.90;99.90;;;;;;5098031;28;20540;-68
2023/06/01 07:54:19;;;;;;;14.93;5.73;;;13.00;99.90;;;;;;5097673;28;20457;-67
2023/06/01 07:56:47;;;;;;;14.80;6.00;;;13.10;99.90;;;;;;5097609;28;20488;-67
2023/06/01 07:59:14;;;;;;;11.67;5.90;;;12.80;99.90;;;;;;5097875;28;20457;-67
2023/06/01 08:01:41;;;;;;;8.90;5.90;;;12.90;99.90;;;;;;5098159;28;20555;-67
2023/06/01 08:04:10;;;;;;;8.80;5.83;;;13.00;99.90;;;;;;5097784;28;20802;-68
2023/06/01 08:06:38;;;;;;;11.50;5.90;;;13.00;99.90;;;;;;5097847;28;20910;-68
2023/06/01 08:09:05;;;;;;;9.87;5.90;;;13.10;99.90;;;;;;5097862;28;20457;-67
2023/06/01 08:11:32;;;;;;;8.67;5.83;;;13.20;99.90;;;;;;5097575;28;20488;-68
2023/06/01 08:14:01;;;;;;;8.53;4.90;;;13.20;99.90;;;;;;5097015;28;20507;-68
2023/06/01 08:16:28;;;;;;;9.70;5.70;;;13.40;99.90;;;;;;5097327;28;20563;-68
2023/06/01 08:18:56;;;;;;;10.20;6.43;;;13.60;99.90;;;;;;5096939;28;20481;-68
2023/06/01 08:21:25;;;;;;;10.23;5.10;;;13.70;99.90;;;;;;5097230;28;20464;-68
2023/06/01 08:23:54;;;;;;;10.47;5.53;;;13.80;99.90;;;;;;5096818;28;20453;-68
2023/06/01 08:26:22;;;;;;;6.90;4.93;;;13.80;99.90;;;;;;5097166;28;20755;-67
2023/06/01 08:28:51;;;;;;;8.33;5.67;;;13.90;99.90;;;;;;5097179;28;20493;-67
2023/06/01 08:31:18;;;;;;;8.47;5.80;;;14.20;99.90;;;;;;5095978;28;20453;-67
2023/06/01 08:33:46;;;;;;;8.73;5.60;;;14.00;99.90;;;;;;5097029;28;20599;-69
2023/06/01 08:36:12;;;;;;;15.13;6.40;;;14.10;99.90;;;;;;5096576;28;20948;-68
2023/06/01 08:38:41;;;;;;;9.97;5.37;;;14.20;99.90;;;;;;5097091;28;20564;-68
2023/06/01 08:41:18;;;;;;;11.80;5.97;;;14.30;99.90;;;;;;5097012;28;20468;-68
2023/06/01 08:43:54;;;;;;;6.83;5.73;;;14.40;99.90;;;;;;5096473;28;20524;-68
2023/06/01 08:46:22;;;;;;;7.63;5.03;;;14.50;99.90;;;;;;5096650;28;20483;-68
2023/06/01 08:48:53;;;;;;;7.47;5.10;;;14.60;99.90;;;;;;5096795;28;20480;-68
2023/06/01 08:51:21;;;;;;;12.23;6.40;;;14.70;99.90;;;;;;5096665;28;20763;-68
2023/06/01 08:53:51;;;;;;;7.93;5.73;;;14.80;99.90;;;;;;5096753;28;20453;-67
2023/06/01 08:56:18;;;;;;;10.10;5.60;;;14.80;99.90;;;;;;5096354;28;20464;-68
2023/06/01 08:58:45;;;;;;;10.27;4.70;;;14.80;99.90;;;;;;5096481;28;20517;-68
2023/06/01 09:01:20;;;;;;;10.83;6.33;;;14.80;99.90;;;;;;5096455;28;20766;-68
2023/06/01 09:03:47;;;;;;;12.63;6.00;;;14.70;99.90;;;;;;5096464;28;20494;-69
2023/06/01 09:06:15;;;;;;;9.83;4.87;;;14.80;99.90;;;;;;5096177;28;20908;-68
2023/06/01 09:08:42;;;;;;;12.27;6.10;;;14.90;99.90;;;;;;5096562;28;20449;-68
2023/06/01 09:11:10;;;;;;;7.50;4.70;;;15.00;99.90;;;;;;5096022;28;20921;-68
2023/06/01 09:13:38;;;;;;;11.20;5.67;;;15.10;99.90;;;;;;5096633;28;20821;-68
2023/06/01 09:16:06;;;;;;;6.27;4.53;;;15.20;99.90;;;;;;5095984;28;20463;-67
2023/06/01 09:18:33;;;;;;;6.53;4.53;;;15.40;99.90;;;;;;5096131;28;20560;-68
2023/06/01 09:21:11;;;;;;;11.00;5.33;;;15.40;99.90;;;;;;5096293;28;20453;-68
2023/06/01 09:23:39;;;;;;;9.13;5.03;;;15.50;99.90;;;;;;5096316;28;20442;-66
2023/06/01 09:26:06;;;;;;;9.33;4.77;;;15.60;99.90;;;;;;5095910;28;20914;-67
2023/06/01 09:28:56;;;;;;;8.50;4.77;;;15.70;99.90;;;;;;5095864;28;20510;-66
2023/06/01 09:31:36;;;;;;;8.10;4.83;;;15.40;99.90;;;;;;5095598;28;20459;-67
2023/06/01 09:34:04;;;;;;;9.47;5.10;;;15.40;99.90;;;;;;5096009;28;20491;-67
2023/06/01 09:36:31;;;;;;;6.17;4.40;;;15.50;99.90;;;;;;5095698;28;20567;-67
2023/06/01 09:39:02;;;;;;;6.20;4.20;;;15.60;99.90;;;;;;5095944;28;20495;-67
2023/06/01 09:41:44;;;;;;;7.77;4.47;;;15.80;99.90;;;;;;5095387;28;20437;-67
2023/06/01 09:44:12;;;;;;;7.23;4.30;;;15.90;99.90;;;;;;5095858;28;20572;-67
2023/06/01 09:46:49;;;;;;;5.73;4.33;;;16.10;99.90;;;;;;5095626;28;20453;-67
2023/06/01 09:49:20;;;;;;;8.17;4.57;;;16.00;99.90;;;;;;5095686;28;20761;-67
2023/06/01 09:51:48;;;;;;;8.90;5.70;;;16.10;99.90;;;;;;5095453;28;20467;-68
2023/06/01 09:54:27;;;;;;;7.77;4.40;;;16.20;99.90;;;;;;5095631;28;20464;-69
2023/06/01 09:56:54;;;;;;;8.33;4.37;;;16.40;99.90;;;;;;5095481;28;20540;-67
2023/06/01 09:59:24;;;;;;;7.03;4.60;;;16.20;99.90;;;;;;5095307;28;20481;-67
2023/06/01 10:01:52;;;;;;;9.17;5.30;;;16.30;99.90;;;;;;5095008;28;20453;-68
2023/06/01 10:04:23;;;;;;;8.27;5.17;;;16.30;99.90;;;;;;5095176;28;20453;-68
2023/06/01 10:06:54;;;;;;;8.90;5.50;;;16.50;99.90;;;;;;5095473;28;20464;-68
2023/06/01 10:09:24;;;;;;;11.67;5.40;;;16.60;99.90;;;;;;5095428;28;20433;-69
2023/06/01 10:11:53;;;;;;;8.10;6.30;;;16.70;99.90;;;;;;5094703;28;20457;-69
2023/06/01 10:14:21;;;;;;;7.17;5.70;;;16.80;99.90;;;;;;5095195;28;20453;-69
2023/06/01 10:16:50;;;;;;;9.20;5.57;;;16.80;99.90;;;;;;5095028;28;20457;-68
2023/06/01 10:19:18;;;;;;;8.37;6.17;;;16.90;99.90;;;;;;5094916;28;20476;-69
2023/06/01 10:21:46;;;;;;;9.17;7.87;;;17.00;99.90;;;;;;5094980;28;20866;-69
2023/06/01 10:24:14;;;;;;;9.20;6.57;;;17.10;99.90;;;;;;5094566;28;20457;-68
2023/06/01 10:26:48;;;;;;;11.77;6.47;;;17.20;99.90;;;;;;5095009;28;20793;-69
2023/06/01 10:29:18;;;;;;;8.47;7.67;;;17.30;99.90;;;;;;5094789;28;20438;-68
2023/06/01 10:31:45;;;;;;;11.60;7.57;;;17.40;99.90;;;;;;5094456;28;20464;-68
2023/06/01 10:34:13;;;;;;;13.10;7.73;;;17.40;99.90;;;;;;5094650;28;20552;-68
2023/06/01 10:37:12;;;;;;;8.77;7.90;;;17.50;99.90;;;;;;5094234;28;20477;-68
2023/06/01 10:39:39;;;;;;;11.07;7.57;;;17.70;99.90;;;;;;5094580;28;20481;-68
2023/06/01 10:42:40;;;;;;;9.50;7.67;;;17.70;99.90;;;;;;5094562;28;20638;-68
2023/06/01 10:45:29;;;;;;;11.53;8.40;;;17.70;99.90;;;;;;5094392;28;20822;-68
2023/06/01 10:47:56;;;;;;;11.67;7.80;;;17.70;99.90;;;;;;5093978;28;20449;-68
2023/06/01 10:50:24;;;;;;;13.17;7.77;;;17.90;99.90;;;;;;5094617;28;20536;-68
2023/06/01 10:52:51;;;;;;;10.13;8.17;;;18.00;99.90;;;;;;5093886;28;20468;-68
2023/06/01 10:55:23;;;;;;;17.07;8.53;;;18.00;99.90;;;;;;5094276;28;20534;-68
2023/06/01 10:57:51;;;;;;;11.07;8.50;;;18.10;99.90;;;;;;5094352;28;20453;-68
2023/06/01 11:00:22;;;;;;;11.63;8.03;;;18.20;99.90;;;;;;5094494;28;20526;-68
2023/06/01 11:02:57;;;;;;;10.47;8.00;;;18.20;99.90;;;;;;5094240;28;20484;-68
2023/06/01 11:05:52;;;;;;;9.37;7.50;;;18.30;99.90;;;;;;5094717;28;20442;-68
2023/06/01 11:09:08;;;;;;;10.43;6.83;;;18.40;99.90;;;;;;5094197;28;20434;-68
2023/06/01 11:12:00;;;;;;;8.10;7.30;;;18.30;99.90;;;;;;5032127;28;20510;-68
2023/06/01 11:14:29;;;;;;;13.73;8.20;;;18.40;99.90;;;;;;5090016;28;20875;-68
2023/06/01 11:16:59;;;;;;;8.30;6.70;;;18.60;99.90;;;;;;5093559;28;20489;-68
2023/06/01 11:19:27;;;;;;;9.80;7.83;;;19.00;99.90;;;;;;5093506;28;20503;-68
2023/06/01 11:22:01;;;;;;;8.43;7.50;;;19.50;99.90;;;;;;5094504;28;20781;-68
2023/06/01 11:24:33;;;;;;;11.60;8.03;;;20.20;99.90;;;;;;5094236;28;20441;-68
2023/06/01 11:27:06;;;;;;;11.83;7.77;;;21.30;99.90;;;;;;5093881;28;20921;-68
2023/06/01 11:29:34;;;;;;;10.37;7.90;;;22.40;99.90;;;;;;5094297;28;20451;-68
2023/06/01 11:32:05;;;;;;;8.23;7.00;;;23.00;1.00;;;;;;5094005;28;20463;-68
2023/06/01 11:34:37;;;;;;;8.63;6.50;;;23.60;1.00;;;;;;5094299;28;20757;-68
2023/06/01 11:37:06;;;;;;;10.07;6.77;;;24.40;1.00;;;;;;5093848;28;20584;-67
2023/06/01 11:39:34;;;;;;;7.27;6.57;;;24.80;1.00;;;;;;5093955;28;20481;-67
2023/06/01 11:42:06;;;;;;;6.90;6.30;;;25.50;1.00;;;;;;5093841;28;20561;-67
2023/06/01 11:44:34;;;;;;;6.23;5.63;;;26.10;1.00;;;;;;5093754;28;20467;-67
2023/06/01 11:47:01;;;;;;;7.27;6.50;;;26.40;1.00;;;;;;5093859;28;20461;-68
2023/06/01 11:49:29;;;;;;;7.20;6.60;;;26.40;1.00;;;;;;5093747;28;20823;-67
2023/06/01 11:51:57;;;;;;;8.17;6.40;;;26.40;1.00;;;;;;5094132;28;20454;-67
2023/06/01 11:54:28;;;;;;;7.93;6.70;;;26.60;1.00;;;;;;5094040;28;20453;-67
2023/06/01 11:56:56;;;;;;;8.90;6.80;;;26.70;1.00;;;;;;5094198;28;20507;-67
2023/06/01 11:59:23;;;;;;;7.10;6.40;;;25.80;1.00;;;;;;5094129;28;20488;-68
2023/06/01 12:01:53;;;;;;;7.43;6.70;;;25.40;1.00;;;;;;5093707;28;20463;-67
2023/06/01 12:04:21;;;;;;;6.80;6.10;;;25.50;1.00;;;;;;5095194;28;20464;-67
2023/06/01 12:06:49;;;;;;;6.80;6.10;;;25.20;1.00;;;;;;5097514;28;20547;-68
2023/06/01 12:09:17;;;;;;;11.47;6.07;;;23.90;1.00;;;;;;5097316;28;20506;-67
2023/06/01 12:11:46;;;;;;;8.57;6.43;;;24.30;1.00;;;;;;5097839;28;20457;-69
2023/06/01 12:14:14;;;;;;;8.03;5.90;;;23.10;1.00;;;;;;5097199;28;20460;-69
2023/06/01 12:16:55;;;;;;;7.70;5.80;;;21.70;1.00;;;;;;5097600;28;20464;-68
2023/06/01 12:19:22;;;;;;;14.90;6.87;;;21.30;1.00;;;;;;5097568;28;20481;-68
2023/06/01 12:21:51;;;;;;;16.43;6.87;;;21.70;1.00;;;;;;5097186;28;20558;-68
2023/06/01 12:24:18;;;;;;;7.33;6.63;;;21.80;1.00;;;;;;5097143;28;20457;-68
2023/06/01 12:26:46;;;;;;;14.87;6.70;;;22.00;1.00;;;;;;5096978;28;20453;-68
2023/06/01 12:29:13;;;;;;;9.30;6.67;;;22.70;1.00;;;;;;5097242;28;20544;-68
2023/06/01 12:31:52;;;;;;;8.63;6.23;;;23.60;1.00;;;;;;5096868;28;20454;-68
2023/06/01 12:34:19;;;;;;;7.17;6.17;;;24.40;1.00;;;;;;5097019;28;20442;-66
2023/06/01 12:36:45;;;;;;;8.77;6.90;;;25.60;1.00;;;;;;5096397;28;20481;-68
2023/06/01 12:39:12;;;;;;;8.43;6.40;;;26.40;1.00;;;;;;5097317;28;20491;-68
2023/06/01 12:41:50;;;;;;;12.20;6.93;;;24.90;1.00;;;;;;5096731;28;20449;-68
2023/06/01 12:44:22;;;;;;;9.00;6.80;;;24.00;1.00;;;;;;5097024;28;20796;-68
2023/06/01 12:46:57;;;;;;;6.60;6.00;;;24.40;1.00;;;;;;5096757;28;20475;-68
2023/06/01 12:49:24;;;;;;;7.33;5.77;;;24.90;1.00;;;;;;5096931;28;20433;-68
2023/06/01 12:51:51;;;;;;;12.50;7.07;;;25.80;1.00;;;;;;5096813;28;20464;-68